Charter Quote
Worldwide +1-877-727-2538 Call
Select Language Lang
SAFETY RELIABILITY EXPERIENCE

Iruma Airport (RJTJ) - Jet Charter Services

AIRPORT INFORMATION
ICAORJTJ
LOCATIONIruma, Japan
FACILITY TYPEAIRPORT
Runway Length (ft) Width (ft) Surface Type Elevation (ft)
35/17 6562 148 ASP 294.81967

At Paramount Business Jets you can hire chartered private jets to and from Iruma Airport with as little as 4 hours of notice. All flights booked via Paramount Business Jets are operated by certified direct air carriers that meet and exceed the FAA part 135 and 121 protocol or a foreign equivalent safety authority. Furthermore, Paramount Business Jets subscribes to ARGUS for their third party safety checks of operators, aircraft, and crews prior each and every flight to and from Iruma Airport and worldwide.

  • Quote a trip using Iruma Airport or call us 24/7 - 365 days a year at +1-877-727-2538.
Questions? Call +1-877-727-2538

METAR Weather Data at Iruma Airport, RJTJ

STATIONRJTJ
OBSERVEDThu Oct 6, 13:34 UTC
NOWTue Mar 19, 21:28 UTC
AGE65311:54 hr ago
WINDvaries at 1 mph
VISIBILITY16 miles
CLOUDSmostly cloudy
TEMP64°F (18°C)
DEWPT59°F (15°C)
HUMIDITY83%
BAROMETER1007 hPa (29.74 in Hg)
METARRJTJ 061334Z VRB01KT 9999 FEW060 BKN080 18/15 Q1007 RMK 1SC060 5AC080 A2976

Call us on +1-877-727-2538 (24 Hours) to Hire a Private Jet or Get a Quick Quote.

Find Airports Near any Location

Processing
...